Wintergreen, VA

4:31 PM EST on February 09, 2016 (GMT -0500)
Spruce Creek Park | | Change Station
CLOSE
Current Station
Personal Weather Station
Location: Nellysford, VA
Elevation: 843 ft
Nearby Weather Stations

Elev 843 ft 37.89 °N, 78.90 °W | Updated 1 minute ago

Overcast
Overcast
36.9 °F
Feels Like 31 °F
N
8.0
Wind Variable Wind from SW
Gusts 9.0 mph

Today
High -- | Low -- °F
--% Chance of Precip.
Yesterday
High -- | Low -- °F
Precip. -- in
Pressure 29.56 in
Visibility 10.0 miles
Clouds Mostly Cloudy 6000 ft
Mostly Cloudy 7500 ft
Windchill 31 °F
Dew Point 20 °F
Humidity 49%
Rainfall 0.00 in
Snow Depth Not available.
7:12 AM 5:47 PM
New Moon, 2% visible
METAR KCHO 092053Z 29008KT 10SM BKN060 BKN075 05/M07 A2955 RMK AO2 SLP008 T00501072 53002
Pressure 29.56 in
Visibility 10.0 miles
Clouds Mostly Cloudy 6000 ft
Mostly Cloudy 7500 ft
Windchill 31 °F
Dew Point 20 °F
Humidity 49%
Rainfall 0.00 in
Snow Depth Not available.
7:12 AM 5:47 PM
New Moon, 2% visible
METAR KCHO 092053Z 29008KT 10SM BKN060 BKN075 05/M07 A2955 RMK AO2 SLP008 T00501072 53002
Winter Storm Nacio, the third winter storm in five days to affect the Northeast, is bringing pockets of locally heavy snow to parts of the Ohio Valley, Appalachians and mid-Atlantic states Tuesday. Winter storm warnings are posted for parts of southern Pennsylvania, southern Ohio and the higher peaks of the Appalachians. Winter weather advisories, generally for lighter snow accumulations, stretch from northeast Alabama and far north Georgia to southern Connecticut and Long Island.

10-Day Weather Forecast

Almanac

Astronomy

Feb. 09, 2016 Rise Set
Actual Time
Civil Twilight
Nautical Twilight
Astronomical Twilight
Moon
Length of Visible Light
Length of Day
Tomorrow will be .
, % of the Moon is Illuminated

Today's Extremes

State Highs State Lows

Community

WunderPhotos

Upload Photos

1,891,708 photos uploaded!

WunderBlog® & News

Nearby

Air Quality

  Air Quality AQ Index Pollutant
Not available.

Snow Depth

Station Depth Elevation

Earthquake Activity

City Distance Mag. Time & Date
Minimum magnitude displayed is 2.5.

Coastal Water Temperatures

Place Temperature

Stations

Nearby Weather Stations

Station Location Temp. Windchill Dew Point Humidity Wind Precip. Elev Updated Type
                   

Watches & Warnings

There are currently no watches in effect.